createdAt,value
2022-08-28T00:00:49.930Z,13.57
2022-08-28T00:05:51.492Z,13.54
2022-08-28T00:10:54.056Z,13.48
2022-08-28T00:16:00.725Z,13.40
2022-08-28T00:21:02.873Z,13.38
2022-08-28T00:26:04.555Z,13.26
2022-08-28T00:31:08.113Z,13.26
2022-08-28T00:36:11.297Z,13.15
2022-08-28T00:41:12.862Z,13.06
2022-08-28T00:46:23.651Z,13.04
2022-08-28T00:51:44.251Z,13.02
2022-08-28T00:56:47.595Z,12.99
2022-08-28T01:01:54.782Z,12.92
2022-08-28T01:06:57.998Z,12.92
2022-08-28T01:12:06.582Z,12.93
2022-08-28T01:17:09.828Z,12.85
2022-08-28T01:22:20.741Z,12.79
2022-08-28T01:27:23.986Z,12.71
2022-08-28T01:32:38.392Z,12.70
2022-08-28T01:37:41.050Z,12.61
2022-08-28T01:42:43.961Z,12.60
2022-08-28T01:47:46.742Z,12.53
2022-08-28T01:52:48.561Z,12.40
2022-08-28T01:57:53.738Z,12.43
2022-08-28T02:02:57.309Z,12.42
2022-08-28T02:08:00.989Z,12.38
2022-08-28T02:13:05.115Z,12.37
2022-08-28T02:18:07.146Z,12.29
2022-08-28T02:23:09.809Z,12.24
2022-08-28T02:28:11.581Z,12.22
2022-08-28T02:33:13.310Z,12.20
2022-08-28T02:38:15.329Z,12.17
2022-08-28T02:43:17.389Z,12.13
2022-08-28T02:48:19.026Z,12.13
2022-08-28T02:53:22.547Z,12.03
2022-08-28T02:58:26.808Z,12.03
2022-08-28T03:03:31.074Z,12.03
2022-08-28T03:08:33.146Z,12.04
2022-08-28T03:13:35.356Z,12.05
2022-08-28T03:18:37.250Z,12.00
2022-08-28T03:23:39.040Z,12.00
2022-08-28T03:28:47.110Z,12.00
2022-08-28T03:33:50.289Z,12.00
2022-08-28T03:38:53.981Z,11.95
2022-08-28T03:43:57.387Z,11.99
2022-08-28T03:49:01.393Z,11.93
2022-08-28T03:54:04.440Z,11.79
2022-08-28T03:59:05.996Z,11.79
2022-08-28T04:04:07.605Z,11.79
2022-08-28T04:09:09.208Z,11.76
2022-08-28T04:14:11.795Z,11.75
2022-08-28T04:19:13.377Z,11.73
2022-08-28T04:24:14.971Z,11.76
2022-08-28T04:29:17.741Z,11.75
2022-08-28T04:34:19.495Z,11.77
2022-08-28T04:39:21.115Z,11.77
2022-08-28T04:44:22.713Z,11.77
2022-08-28T04:49:25.969Z,11.73
2022-08-28T04:54:27.792Z,11.92
2022-08-28T04:59:29.753Z,12.10
2022-08-28T05:04:31.357Z,12.32
2022-08-28T05:09:34.859Z,12.41
2022-08-28T05:14:36.666Z,12.49
2022-08-28T05:19:39.279Z,12.61
2022-08-28T05:24:40.817Z,12.89
2022-08-28T05:29:42.371Z,13.04
2022-08-28T05:34:43.908Z,13.15
2022-08-28T05:39:45.467Z,13.22
2022-08-28T05:44:47.072Z,14.08
2022-08-28T05:49:48.851Z,14.08
2022-08-28T05:54:53.863Z,14.22
2022-08-28T05:59:55.386Z,14.30
2022-08-28T06:04:57.781Z,14.47
2022-08-28T06:09:59.595Z,14.53
2022-08-28T06:15:01.225Z,14.67
2022-08-28T06:20:02.832Z,14.69
2022-08-28T06:25:08.138Z,15.08
2022-08-28T06:30:10.138Z,15.45
2022-08-28T06:35:11.948Z,15.51
2022-08-28T06:40:14.138Z,15.57
2022-08-28T06:45:16.396Z,15.64
2022-08-28T06:50:17.959Z,15.51
2022-08-28T06:55:19.537Z,15.43
2022-08-28T07:00:21.198Z,15.66
2022-08-28T07:05:23.055Z,15.73
2022-08-28T07:10:24.814Z,15.92
2022-08-28T07:15:27.222Z,15.96
2022-08-28T07:20:28.797Z,16.03
2022-08-28T07:25:30.456Z,16.37
2022-08-28T07:30:32.027Z,16.80
2022-08-28T07:35:33.590Z,17.21
2022-08-28T07:40:35.201Z,17.57
2022-08-28T07:45:36.933Z,17.95
2022-08-28T07:50:38.511Z,18.21
2022-08-28T07:55:43.063Z,18.51
2022-08-28T08:00:45.089Z,18.60
2022-08-28T08:05:55.339Z,18.66
2022-08-28T08:11:03.232Z,18.91
2022-08-28T08:16:09.387Z,18.87
2022-08-28T08:21:14.011Z,18.95
2022-08-28T08:26:21.569Z,18.93
2022-08-28T08:31:33.697Z,18.82
2022-08-28T08:36:38.404Z,19.08
2022-08-28T08:41:48.021Z,19.44
2022-08-28T08:46:58.666Z,19.75
2022-08-28T08:52:06.706Z,19.81
2022-08-28T08:57:14.701Z,19.66
2022-08-28T09:02:31.273Z,19.89
2022-08-28T09:07:53.191Z,20.54
2022-08-28T09:13:04.974Z,19.89
2022-08-28T09:18:22.389Z,19.63
2022-08-28T09:23:25.414Z,20.30
2022-08-28T09:28:31.391Z,20.19
2022-08-28T09:33:41.636Z,20.65
2022-08-28T09:38:43.453Z,21.72
2022-08-28T09:43:46.683Z,21.67
2022-08-28T09:48:52.426Z,20.98
2022-08-28T09:53:54.555Z,20.70
2022-08-28T09:59:08.452Z,20.84
2022-08-28T10:04:20.751Z,23.08
2022-08-28T10:09:47.780Z,23.73
2022-08-28T10:15:04.851Z,23.02
2022-08-28T10:20:44.975Z,24.59
2022-08-28T10:25:54.756Z,26.72
2022-08-28T10:31:05.586Z,24.55
2022-08-28T10:36:33.998Z,22.78
2022-08-28T10:41:58.234Z,23.19
2022-08-28T10:47:01.603Z,24.02
2022-08-28T10:52:41.848Z,28.18
2022-08-28T10:57:53.060Z,28.64
2022-08-28T11:02:58.217Z,26.51
2022-08-28T11:08:05.218Z,25.66
2022-08-28T11:13:10.092Z,26.41
2022-08-28T11:18:11.668Z,26.63
2022-08-28T11:23:17.372Z,24.62
2022-08-28T11:28:26.077Z,23.34
2022-08-28T11:33:41.421Z,25.09
2022-08-28T11:38:43.383Z,24.20
2022-08-28T11:43:47.219Z,25.58
2022-08-28T11:48:54.694Z,24.40
2022-08-28T11:54:43.914Z,24.01
2022-08-28T11:59:57.741Z,25.05
2022-08-28T12:04:59.413Z,26.30
2022-08-28T12:10:04.952Z,26.34
2022-08-28T12:15:08.692Z,24.75
2022-08-28T12:20:19.292Z,24.73
2022-08-28T12:25:35.249Z,25.13
2022-08-28T12:30:44.413Z,24.17
2022-08-28T12:35:46.157Z,23.34
2022-08-28T12:40:52.936Z,23.24
2022-08-28T12:45:57.666Z,23.85
2022-08-28T12:51:14.205Z,24.34
2022-08-28T12:56:19.292Z,23.74
2022-08-28T13:01:31.339Z,23.54
2022-08-28T13:06:36.569Z,23.14
2022-08-28T13:11:40.133Z,23.47
2022-08-28T13:16:41.654Z,25.03
2022-08-28T13:21:46.181Z,25.38
2022-08-28T13:26:50.749Z,24.97
2022-08-28T13:31:59.430Z,25.26
2022-08-28T13:37:04.191Z,24.85
2022-08-28T13:42:15.891Z,24.98
2022-08-28T13:47:17.790Z,25.74
2022-08-28T13:52:19.356Z,25.49
2022-08-28T13:57:21.545Z,25.39
2022-08-28T14:02:41.665Z,25.55
2022-08-28T14:07:44.073Z,24.86
2022-08-28T14:12:47.700Z,24.84
2022-08-28T14:17:49.264Z,24.21
2022-08-28T14:22:50.943Z,23.66
2022-08-28T14:27:52.570Z,23.38
2022-08-28T14:32:54.720Z,24.23
2022-08-28T14:37:56.370Z,24.51
2022-08-28T14:42:57.931Z,24.75
2022-08-28T14:47:59.703Z,24.11
2022-08-28T14:53:01.890Z,23.81
2022-08-28T14:58:03.453Z,24.08
2022-08-28T15:03:05.255Z,24.38
2022-08-28T15:08:09.468Z,23.49
2022-08-28T15:13:12.650Z,23.52
2022-08-28T15:18:14.525Z,23.29
2022-08-28T15:23:16.321Z,22.05
2022-08-28T15:28:18.987Z,22.04
2022-08-28T15:33:20.532Z,22.09
2022-08-28T15:38:22.747Z,21.81
2022-08-28T15:43:24.325Z,21.31
2022-08-28T15:48:25.939Z,21.22
2022-08-28T15:53:27.492Z,21.01
2022-08-28T15:58:31.339Z,20.99
2022-08-28T16:03:32.839Z,20.77
2022-08-28T16:08:34.453Z,20.57
2022-08-28T16:13:36.211Z,20.34
2022-08-28T16:18:37.843Z,20.30
2022-08-28T16:23:40.099Z,19.90
2022-08-28T16:28:43.630Z,19.62
2022-08-28T16:33:45.271Z,19.52
2022-08-28T16:38:49.367Z,19.35
2022-08-28T16:44:01.350Z,19.20
2022-08-28T16:49:03.048Z,19.25
2022-08-28T16:54:04.651Z,19.29
2022-08-28T16:59:10.440Z,19.18
2022-08-28T17:04:12.265Z,19.18
2022-08-28T17:09:13.923Z,19.14
2022-08-28T17:14:15.514Z,19.02
2022-08-28T17:19:17.837Z,18.98
2022-08-28T17:24:19.614Z,18.76
2022-08-28T17:29:21.261Z,18.70
2022-08-28T17:34:25.763Z,18.60
2022-08-28T17:39:31.358Z,18.36
2022-08-28T17:44:33.310Z,18.34
2022-08-28T17:49:34.979Z,18.33
2022-08-28T17:54:36.615Z,18.20
2022-08-28T17:59:38.284Z,18.18
2022-08-28T18:04:39.868Z,18.17
2022-08-28T18:09:41.644Z,18.09
2022-08-28T18:14:43.412Z,18.14
2022-08-28T18:19:45.074Z,18.15
2022-08-28T18:24:52.478Z,18.13
2022-08-28T18:29:54.427Z,18.19
2022-08-28T18:34:56.064Z,18.13
2022-08-28T18:39:57.642Z,18.13
2022-08-28T18:45:01.647Z,18.02
2022-08-28T18:50:05.420Z,18.02
2022-08-28T18:55:08.555Z,17.81
2022-08-28T19:00:10.998Z,17.78
2022-08-28T19:05:13.312Z,17.69
2022-08-28T19:10:32.017Z,17.65
2022-08-28T19:15:35.696Z,17.43
2022-08-28T19:20:37.688Z,17.37
2022-08-28T19:25:39.243Z,17.32
2022-08-28T19:30:40.857Z,17.41
2022-08-28T19:35:42.789Z,17.29
2022-08-28T19:40:45.449Z,17.30
2022-08-28T19:45:47.220Z,17.23
2022-08-28T19:50:48.918Z,17.20
2022-08-28T19:55:51.813Z,17.15
2022-08-28T20:00:53.369Z,17.08
2022-08-28T20:05:55.739Z,17.07
2022-08-28T20:10:57.802Z,17.15
2022-08-28T20:16:04.889Z,17.14
2022-08-28T20:21:10.944Z,17.19
2022-08-28T20:26:13.530Z,17.36
2022-08-28T20:31:17.869Z,17.41
2022-08-28T20:36:21.210Z,17.22
2022-08-28T20:41:24.099Z,17.16
2022-08-28T20:46:25.755Z,17.16
2022-08-28T20:51:46.236Z,17.04
2022-08-28T20:56:49.123Z,17.07
2022-08-28T21:01:51.487Z,17.08
2022-08-28T21:06:53.074Z,17.14
2022-08-28T21:11:54.724Z,17.14
2022-08-28T21:16:57.436Z,17.25
2022-08-28T21:21:59.528Z,17.29
2022-08-28T21:27:02.231Z,17.29
2022-08-28T21:32:04.344Z,17.32
2022-08-28T21:37:06.420Z,17.37
2022-08-28T21:42:08.066Z,17.42
2022-08-28T21:47:09.671Z,17.42
2022-08-28T21:52:11.431Z,17.41
2022-08-28T21:57:12.990Z,17.41
2022-08-28T22:02:14.590Z,17.38
2022-08-28T22:07:17.768Z,17.35
2022-08-28T22:12:19.645Z,17.33
2022-08-28T22:17:21.408Z,17.28
2022-08-28T22:22:41.377Z,17.02
2022-08-28T22:27:43.000Z,16.98
2022-08-28T22:32:45.300Z,16.92
2022-08-28T22:37:47.179Z,16.88
2022-08-28T22:42:50.434Z,16.75
2022-08-28T22:47:52.803Z,16.80
2022-08-28T22:52:54.477Z,16.79
2022-08-28T22:57:56.090Z,16.64
2022-08-28T23:02:58.235Z,16.71
2022-08-28T23:07:59.781Z,16.68
2022-08-28T23:13:01.318Z,16.68
2022-08-28T23:18:02.972Z,16.57
2022-08-28T23:23:05.816Z,16.44
2022-08-28T23:28:07.570Z,16.38
2022-08-28T23:33:09.272Z,16.29
2022-08-28T23:38:10.953Z,16.14
2022-08-28T23:43:15.466Z,16.12
2022-08-28T23:48:17.747Z,16.07
2022-08-28T23:53:19.556Z,16.06
2022-08-28T23:58:22.519Z,16.19
